sensor_id;sensor_type;location;lat;lon;timestamp;P1;durP1;ratioP1;P2;durP2;ratioP2
2748;SDS011;1382;52.142;11.618;2024-02-28T00:02:05;17.43;;;12.17;;
2748;SDS011;1382;52.142;11.618;2024-02-28T00:04:35;19.23;;;12.63;;
2748;SDS011;1382;52.142;11.618;2024-02-28T00:07:02;20.70;;;13.20;;
2748;SDS011;1382;52.142;11.618;2024-02-28T00:09:32;21.47;;;12.40;;
2748;SDS011;1382;52.142;11.618;2024-02-28T00:12:34;17.53;;;10.47;;
2748;SDS011;1382;52.142;11.618;2024-02-28T00:15:02;15.27;;;11.87;;
2748;SDS011;1382;52.142;11.618;2024-02-28T00:17:33;18.23;;;12.40;;
2748;SDS011;1382;52.142;11.618;2024-02-28T00:20:00;17.60;;;12.17;;
2748;SDS011;1382;52.142;11.618;2024-02-28T00:22:31;16.23;;;8.70;;
2748;SDS011;1382;52.142;11.618;2024-02-28T00:25:00;16.30;;;10.23;;
2748;SDS011;1382;52.142;11.618;2024-02-28T00:27:27;16.40;;;10.70;;
2748;SDS011;1382;52.142;11.618;2024-02-28T00:29:57;13.67;;;8.57;;
2748;SDS011;1382;52.142;11.618;2024-02-28T00:32:25;20.10;;;11.87;;
2748;SDS011;1382;52.142;11.618;2024-02-28T00:34:52;17.60;;;11.67;;
2748;SDS011;1382;52.142;11.618;2024-02-28T00:37:22;16.27;;;10.80;;
2748;SDS011;1382;52.142;11.618;2024-02-28T00:39:49;22.63;;;13.13;;
2748;SDS011;1382;52.142;11.618;2024-02-28T00:42:17;21.80;;;13.47;;
2748;SDS011;1382;52.142;11.618;2024-02-28T00:44:49;22.57;;;14.60;;
2748;SDS011;1382;52.142;11.618;2024-02-28T00:47:21;18.60;;;12.33;;
2748;SDS011;1382;52.142;11.618;2024-02-28T00:49:48;23.07;;;13.20;;
2748;SDS011;1382;52.142;11.618;2024-02-28T00:52:15;21.13;;;13.93;;
2748;SDS011;1382;52.142;11.618;2024-02-28T00:54:42;26.43;;;15.27;;
2748;SDS011;1382;52.142;11.618;2024-02-28T00:57:09;20.73;;;13.77;;
2748;SDS011;1382;52.142;11.618;2024-02-28T00:59:42;17.93;;;12.60;;
2748;SDS011;1382;52.142;11.618;2024-02-28T01:02:11;16.73;;;12.13;;
2748;SDS011;1382;52.142;11.618;2024-02-28T01:04:39;21.53;;;15.43;;
2748;SDS011;1382;52.142;11.618;2024-02-28T01:07:06;22.77;;;15.43;;
2748;SDS011;1382;52.142;11.618;2024-02-28T01:09:33;27.90;;;17.10;;
2748;SDS011;1382;52.142;11.618;2024-02-28T01:12:05;24.37;;;15.00;;
2748;SDS011;1382;52.142;11.618;2024-02-28T01:14:35;22.90;;;12.53;;
2748;SDS011;1382;52.142;11.618;2024-02-28T01:17:04;18.97;;;12.30;;
2748;SDS011;1382;52.142;11.618;2024-02-28T01:19:33;22.63;;;13.27;;
2748;SDS011;1382;52.142;11.618;2024-02-28T01:22:03;18.30;;;11.70;;
2748;SDS011;1382;52.142;11.618;2024-02-28T01:24:33;18.20;;;12.57;;
2748;SDS011;1382;52.142;11.618;2024-02-28T01:27:03;19.47;;;14.10;;
2748;SDS011;1382;52.142;11.618;2024-02-28T01:29:30;26.33;;;15.53;;
2748;SDS011;1382;52.142;11.618;2024-02-28T01:31:58;25.70;;;13.77;;
2748;SDS011;1382;52.142;11.618;2024-02-28T01:34:26;23.27;;;15.73;;
2748;SDS011;1382;52.142;11.618;2024-02-28T01:36:55;22.50;;;15.17;;
2748;SDS011;1382;52.142;11.618;2024-02-28T01:39:26;17.93;;;13.13;;
2748;SDS011;1382;52.142;11.618;2024-02-28T01:41:58;24.13;;;16.70;;
2748;SDS011;1382;52.142;11.618;2024-02-28T01:44:25;23.50;;;14.50;;
2748;SDS011;1382;52.142;11.618;2024-02-28T01:46:52;22.77;;;14.73;;
2748;SDS011;1382;52.142;11.618;2024-02-28T01:49:21;19.90;;;14.23;;
2748;SDS011;1382;52.142;11.618;2024-02-28T01:51:50;23.53;;;14.40;;
2748;SDS011;1382;52.142;11.618;2024-02-28T01:54:18;21.90;;;12.90;;
2748;SDS011;1382;52.142;11.618;2024-02-28T01:56:47;24.20;;;14.43;;
2748;SDS011;1382;52.142;11.618;2024-02-28T01:59:16;19.97;;;12.03;;
2748;SDS011;1382;52.142;11.618;2024-02-28T02:01:45;20.57;;;13.43;;
2748;SDS011;1382;52.142;11.618;2024-02-28T02:04:12;21.40;;;14.30;;
2748;SDS011;1382;52.142;11.618;2024-02-28T02:06:42;21.47;;;13.47;;
2748;SDS011;1382;52.142;11.618;2024-02-28T02:09:15;17.63;;;11.37;;
2748;SDS011;1382;52.142;11.618;2024-02-28T02:11:45;24.23;;;15.80;;
2748;SDS011;1382;52.142;11.618;2024-02-28T02:14:14;22.80;;;12.73;;
2748;SDS011;1382;52.142;11.618;2024-02-28T02:20:11;26.13;;;14.00;;
2748;SDS011;1382;52.142;11.618;2024-02-28T02:22:43;25.23;;;15.83;;
2748;SDS011;1382;52.142;11.618;2024-02-28T02:25:12;26.60;;;16.33;;
2748;SDS011;1382;52.142;11.618;2024-02-28T02:27:39;23.20;;;15.73;;
2748;SDS011;1382;52.142;11.618;2024-02-28T02:30:06;20.30;;;13.50;;
2748;SDS011;1382;52.142;11.618;2024-02-28T02:32:34;24.50;;;15.47;;
2748;SDS011;1382;52.142;11.618;2024-02-28T02:35:01;24.90;;;15.23;;
2748;SDS011;1382;52.142;11.618;2024-02-28T02:37:28;21.93;;;13.60;;
2748;SDS011;1382;52.142;11.618;2024-02-28T02:39:59;25.03;;;13.67;;
2748;SDS011;1382;52.142;11.618;2024-02-28T02:42:26;21.17;;;11.60;;
2748;SDS011;1382;52.142;11.618;2024-02-28T02:45:01;23.13;;;12.57;;
2748;SDS011;1382;52.142;11.618;2024-02-28T02:47:31;19.77;;;12.17;;
2748;SDS011;1382;52.142;11.618;2024-02-28T02:49:59;24.17;;;13.60;;
2748;SDS011;1382;52.142;11.618;2024-02-28T02:52:26;21.23;;;13.17;;
2748;SDS011;1382;52.142;11.618;2024-02-28T02:54:57;22.53;;;12.83;;
2748;SDS011;1382;52.142;11.618;2024-02-28T02:57:24;18.10;;;11.73;;
2748;SDS011;1382;52.142;11.618;2024-02-28T02:59:51;19.80;;;11.77;;
2748;SDS011;1382;52.142;11.618;2024-02-28T03:02:18;14.73;;;10.50;;
2748;SDS011;1382;52.142;11.618;2024-02-28T03:04:45;21.77;;;13.03;;
2748;SDS011;1382;52.142;11.618;2024-02-28T03:07:12;17.43;;;12.00;;
2748;SDS011;1382;52.142;11.618;2024-02-28T03:09:42;16.80;;;12.10;;
2748;SDS011;1382;52.142;11.618;2024-02-28T03:12:10;18.23;;;12.70;;
2748;SDS011;1382;52.142;11.618;2024-02-28T03:14:38;18.20;;;13.50;;
2748;SDS011;1382;52.142;11.618;2024-02-28T03:17:05;16.13;;;11.17;;
2748;SDS011;1382;52.142;11.618;2024-02-28T03:19:32;17.27;;;10.60;;
2748;SDS011;1382;52.142;11.618;2024-02-28T03:21:59;14.63;;;9.20;;
2748;SDS011;1382;52.142;11.618;2024-02-28T03:24:26;16.00;;;10.50;;
2748;SDS011;1382;52.142;11.618;2024-02-28T03:26:55;20.67;;;12.10;;
2748;SDS011;1382;52.142;11.618;2024-02-28T03:29:24;19.80;;;10.80;;
2748;SDS011;1382;52.142;11.618;2024-02-28T03:31:51;15.07;;;9.10;;
2748;SDS011;1382;52.142;11.618;2024-02-28T03:34:20;16.80;;;11.67;;
2748;SDS011;1382;52.142;11.618;2024-02-28T03:36:47;18.37;;;11.43;;
2748;SDS011;1382;52.142;11.618;2024-02-28T03:39:14;17.73;;;11.70;;
2748;SDS011;1382;52.142;11.618;2024-02-28T03:41:41;18.03;;;11.60;;
2748;SDS011;1382;52.142;11.618;2024-02-28T03:44:08;19.40;;;12.10;;
2748;SDS011;1382;52.142;11.618;2024-02-28T03:46:37;20.03;;;13.40;;
2748;SDS011;1382;52.142;11.618;2024-02-28T03:49:06;21.67;;;12.20;;
2748;SDS011;1382;52.142;11.618;2024-02-28T03:51:40;18.80;;;11.83;;
2748;SDS011;1382;52.142;11.618;2024-02-28T03:54:08;21.33;;;12.47;;
2748;SDS011;1382;52.142;11.618;2024-02-28T03:56:35;22.17;;;11.23;;
2748;SDS011;1382;52.142;11.618;2024-02-28T03:59:02;19.57;;;12.63;;
2748;SDS011;1382;52.142;11.618;2024-02-28T04:01:29;17.37;;;10.83;;
2748;SDS011;1382;52.142;11.618;2024-02-28T04:03:58;20.90;;;13.20;;
2748;SDS011;1382;52.142;11.618;2024-02-28T04:06:26;17.57;;;11.10;;
2748;SDS011;1382;52.142;11.618;2024-02-28T04:08:58;17.07;;;11.23;;
2748;SDS011;1382;52.142;11.618;2024-02-28T04:11:25;15.70;;;9.33;;
2748;SDS011;1382;52.142;11.618;2024-02-28T04:13:52;15.33;;;10.03;;
2748;SDS011;1382;52.142;11.618;2024-02-28T04:16:20;22.20;;;12.70;;
2748;SDS011;1382;52.142;11.618;2024-02-28T04:18:48;19.17;;;12.40;;
2748;SDS011;1382;52.142;11.618;2024-02-28T04:21:16;22.03;;;14.00;;
2748;SDS011;1382;52.142;11.618;2024-02-28T04:23:46;16.43;;;10.67;;
2748;SDS011;1382;52.142;11.618;2024-02-28T04:26:17;22.00;;;13.47;;
2748;SDS011;1382;52.142;11.618;2024-02-28T04:28:45;16.50;;;10.90;;
2748;SDS011;1382;52.142;11.618;2024-02-28T04:31:12;18.37;;;10.63;;
2748;SDS011;1382;52.142;11.618;2024-02-28T04:33:41;19.27;;;12.60;;
2748;SDS011;1382;52.142;11.618;2024-02-28T04:36:09;18.33;;;11.20;;
2748;SDS011;1382;52.142;11.618;2024-02-28T04:38:38;21.30;;;13.00;;
2748;SDS011;1382;52.142;11.618;2024-02-28T04:41:05;17.53;;;11.30;;
2748;SDS011;1382;52.142;11.618;2024-02-28T04:43:32;16.87;;;10.60;;
2748;SDS011;1382;52.142;11.618;2024-02-28T04:46:00;18.17;;;10.60;;
2748;SDS011;1382;52.142;11.618;2024-02-28T04:48:28;14.27;;;9.53;;
2748;SDS011;1382;52.142;11.618;2024-02-28T04:50:57;16.30;;;11.53;;
2748;SDS011;1382;52.142;11.618;2024-02-28T04:53:25;14.10;;;9.70;;
2748;SDS011;1382;52.142;11.618;2024-02-28T04:55:56;15.10;;;9.50;;
2748;SDS011;1382;52.142;11.618;2024-02-28T04:58:26;15.40;;;10.40;;
2748;SDS011;1382;52.142;11.618;2024-02-28T05:01:00;16.03;;;9.40;;
2748;SDS011;1382;52.142;11.618;2024-02-28T05:03:27;17.63;;;11.77;;
2748;SDS011;1382;52.142;11.618;2024-02-28T05:05:54;15.00;;;8.87;;
2748;SDS011;1382;52.142;11.618;2024-02-28T05:08:29;15.07;;;8.07;;
2748;SDS011;1382;52.142;11.618;2024-02-28T05:10:57;14.10;;;8.80;;
2748;SDS011;1382;52.142;11.618;2024-02-28T05:13:25;16.67;;;10.60;;
2748;SDS011;1382;52.142;11.618;2024-02-28T05:15:52;17.70;;;10.43;;
2748;SDS011;1382;52.142;11.618;2024-02-28T05:18:19;14.00;;;9.73;;
2748;SDS011;1382;52.142;11.618;2024-02-28T05:20:46;17.73;;;10.07;;
2748;SDS011;1382;52.142;11.618;2024-02-28T05:23:13;12.30;;;7.63;;
2748;SDS011;1382;52.142;11.618;2024-02-28T05:25:40;12.50;;;9.07;;
2748;SDS011;1382;52.142;11.618;2024-02-28T05:28:08;15.33;;;10.10;;
2748;SDS011;1382;52.142;11.618;2024-02-28T05:30:35;17.60;;;10.50;;
2748;SDS011;1382;52.142;11.618;2024-02-28T05:33:09;14.87;;;10.50;;
2748;SDS011;1382;52.142;11.618;2024-02-28T05:35:36;12.63;;;8.13;;
2748;SDS011;1382;52.142;11.618;2024-02-28T05:38:05;13.53;;;9.60;;
2748;SDS011;1382;52.142;11.618;2024-02-28T05:40:33;14.07;;;10.10;;
2748;SDS011;1382;52.142;11.618;2024-02-28T05:43:00;18.17;;;11.80;;
2748;SDS011;1382;52.142;11.618;2024-02-28T05:45:29;20.53;;;11.67;;
2748;SDS011;1382;52.142;11.618;2024-02-28T05:47:56;16.70;;;10.97;;
2748;SDS011;1382;52.142;11.618;2024-02-28T05:50:22;16.20;;;11.17;;
2748;SDS011;1382;52.142;11.618;2024-02-28T05:52:49;18.47;;;12.20;;
2748;SDS011;1382;52.142;11.618;2024-02-28T05:55:17;16.20;;;10.70;;
2748;SDS011;1382;52.142;11.618;2024-02-28T05:57:43;17.70;;;13.20;;
2748;SDS011;1382;52.142;11.618;2024-02-28T06:00:11;16.10;;;11.87;;
2748;SDS011;1382;52.142;11.618;2024-02-28T06:02:40;23.20;;;14.80;;
2748;SDS011;1382;52.142;11.618;2024-02-28T06:05:07;22.10;;;15.50;;
2748;SDS011;1382;52.142;11.618;2024-02-28T06:07:34;17.67;;;12.83;;
2748;SDS011;1382;52.142;11.618;2024-02-28T06:10:05;17.10;;;12.10;;
2748;SDS011;1382;52.142;11.618;2024-02-28T06:12:32;17.63;;;12.63;;
2748;SDS011;1382;52.142;11.618;2024-02-28T06:14:59;16.63;;;12.80;;
2748;SDS011;1382;52.142;11.618;2024-02-28T06:17:26;16.80;;;12.50;;
2748;SDS011;1382;52.142;11.618;2024-02-28T06:19:54;19.00;;;13.90;;
2748;SDS011;1382;52.142;11.618;2024-02-28T06:22:21;17.20;;;12.17;;
2748;SDS011;1382;52.142;11.618;2024-02-28T06:24:48;15.73;;;12.37;;
2748;SDS011;1382;52.142;11.618;2024-02-28T06:27:15;15.73;;;11.97;;
2748;SDS011;1382;52.142;11.618;2024-02-28T06:29:46;17.43;;;11.83;;
2748;SDS011;1382;52.142;11.618;2024-02-28T06:32:15;13.70;;;9.80;;
2748;SDS011;1382;52.142;11.618;2024-02-28T06:34:42;16.13;;;11.07;;
2748;SDS011;1382;52.142;11.618;2024-02-28T06:37:11;13.53;;;10.33;;
2748;SDS011;1382;52.142;11.618;2024-02-28T06:39:38;13.97;;;10.40;;
2748;SDS011;1382;52.142;11.618;2024-02-28T06:42:05;14.13;;;9.60;;
2748;SDS011;1382;52.142;11.618;2024-02-28T06:44:32;13.17;;;10.10;;
2748;SDS011;1382;52.142;11.618;2024-02-28T06:46:58;14.07;;;10.20;;
2748;SDS011;1382;52.142;11.618;2024-02-28T06:49:25;10.60;;;8.30;;
2748;SDS011;1382;52.142;11.618;2024-02-28T06:52:00;18.03;;;10.30;;
2748;SDS011;1382;52.142;11.618;2024-02-28T06:54:32;12.30;;;8.97;;
2748;SDS011;1382;52.142;11.618;2024-02-28T06:57:00;13.40;;;9.70;;
2748;SDS011;1382;52.142;11.618;2024-02-28T06:59:27;13.33;;;8.43;;
2748;SDS011;1382;52.142;11.618;2024-02-28T07:01:54;12.37;;;9.77;;
2748;SDS011;1382;52.142;11.618;2024-02-28T07:04:24;14.03;;;8.77;;
2748;SDS011;1382;52.142;11.618;2024-02-28T07:06:57;11.23;;;8.10;;
2748;SDS011;1382;52.142;11.618;2024-02-28T07:09:24;11.10;;;8.53;;
2748;SDS011;1382;52.142;11.618;2024-02-28T07:11:52;11.70;;;9.17;;
2748;SDS011;1382;52.142;11.618;2024-02-28T07:14:20;12.47;;;9.67;;
2748;SDS011;1382;52.142;11.618;2024-02-28T07:16:47;12.40;;;8.40;;
2748;SDS011;1382;52.142;11.618;2024-02-28T07:19:14;15.20;;;10.30;;
2748;SDS011;1382;52.142;11.618;2024-02-28T07:21:40;11.47;;;8.50;;
2748;SDS011;1382;52.142;11.618;2024-02-28T07:24:07;14.50;;;10.13;;
2748;SDS011;1382;52.142;11.618;2024-02-28T07:26:34;15.37;;;10.13;;
2748;SDS011;1382;52.142;11.618;2024-02-28T07:29:02;16.17;;;10.10;;
2748;SDS011;1382;52.142;11.618;2024-02-28T07:31:29;14.80;;;9.43;;
2748;SDS011;1382;52.142;11.618;2024-02-28T07:33:56;13.07;;;8.87;;
2748;SDS011;1382;52.142;11.618;2024-02-28T07:36:23;13.93;;;9.23;;
2748;SDS011;1382;52.142;11.618;2024-02-28T07:38:50;18.80;;;11.37;;
2748;SDS011;1382;52.142;11.618;2024-02-28T07:41:16;14.10;;;9.80;;
2748;SDS011;1382;52.142;11.618;2024-02-28T07:43:43;17.07;;;9.43;;
2748;SDS011;1382;52.142;11.618;2024-02-28T07:46:11;12.57;;;9.63;;
2748;SDS011;1382;52.142;11.618;2024-02-28T07:49:02;13.17;;;9.07;;
2748;SDS011;1382;52.142;11.618;2024-02-28T07:51:54;16.23;;;8.40;;
2748;SDS011;1382;52.142;11.618;2024-02-28T07:54:21;10.70;;;9.40;;
2748;SDS011;1382;52.142;11.618;2024-02-28T07:56:48;11.40;;;8.43;;
2748;SDS011;1382;52.142;11.618;2024-02-28T07:59:15;14.23;;;11.20;;
2748;SDS011;1382;52.142;11.618;2024-02-28T08:01:43;18.00;;;12.07;;
2748;SDS011;1382;52.142;11.618;2024-02-28T08:04:10;17.03;;;12.60;;
2748;SDS011;1382;52.142;11.618;2024-02-28T08:06:39;16.53;;;12.67;;
2748;SDS011;1382;52.142;11.618;2024-02-28T08:09:06;17.30;;;11.80;;
2748;SDS011;1382;52.142;11.618;2024-02-28T08:11:36;15.30;;;11.90;;
2748;SDS011;1382;52.142;11.618;2024-02-28T08:14:02;19.80;;;13.10;;
2748;SDS011;1382;52.142;11.618;2024-02-28T08:16:29;18.10;;;13.20;;
2748;SDS011;1382;52.142;11.618;2024-02-28T08:18:59;18.37;;;13.00;;
2748;SDS011;1382;52.142;11.618;2024-02-28T08:21:26;17.57;;;11.00;;
2748;SDS011;1382;52.142;11.618;2024-02-28T08:23:53;17.97;;;13.03;;
2748;SDS011;1382;52.142;11.618;2024-02-28T08:26:19;20.80;;;14.77;;
2748;SDS011;1382;52.142;11.618;2024-02-28T08:28:46;18.27;;;13.67;;
2748;SDS011;1382;52.142;11.618;2024-02-28T08:31:13;24.50;;;15.00;;
2748;SDS011;1382;52.142;11.618;2024-02-28T08:33:40;21.67;;;15.17;;
2748;SDS011;1382;52.142;11.618;2024-02-28T08:36:09;18.67;;;14.57;;
2748;SDS011;1382;52.142;11.618;2024-02-28T08:38:36;21.83;;;15.57;;
2748;SDS011;1382;52.142;11.618;2024-02-28T08:41:03;22.83;;;15.87;;
2748;SDS011;1382;52.142;11.618;2024-02-28T08:43:30;26.60;;;17.00;;
2748;SDS011;1382;52.142;11.618;2024-02-28T08:45:57;22.67;;;16.60;;
2748;SDS011;1382;52.142;11.618;2024-02-28T08:48:24;18.40;;;12.57;;
2748;SDS011;1382;52.142;11.618;2024-02-28T08:50:50;23.60;;;15.30;;
2748;SDS011;1382;52.142;11.618;2024-02-28T08:53:19;24.70;;;15.97;;
2748;SDS011;1382;52.142;11.618;2024-02-28T08:55:45;27.37;;;18.80;;
2748;SDS011;1382;52.142;11.618;2024-02-28T08:58:13;29.27;;;20.97;;
2748;SDS011;1382;52.142;11.618;2024-02-28T09:00:39;31.07;;;20.80;;
2748;SDS011;1382;52.142;11.618;2024-02-28T09:03:06;27.50;;;18.03;;
2748;SDS011;1382;52.142;11.618;2024-02-28T09:05:33;25.50;;;16.87;;
2748;SDS011;1382;52.142;11.618;2024-02-28T09:08:00;30.73;;;20.93;;
2748;SDS011;1382;52.142;11.618;2024-02-28T09:10:28;26.07;;;18.70;;
2748;SDS011;1382;52.142;11.618;2024-02-28T09:12:55;27.37;;;18.97;;
2748;SDS011;1382;52.142;11.618;2024-02-28T09:15:22;27.90;;;19.90;;
2748;SDS011;1382;52.142;11.618;2024-02-28T09:17:49;27.27;;;19.60;;
2748;SDS011;1382;52.142;11.618;2024-02-28T09:20:16;25.20;;;17.07;;
2748;SDS011;1382;52.142;11.618;2024-02-28T09:22:43;30.37;;;22.37;;
2748;SDS011;1382;52.142;11.618;2024-02-28T09:25:10;33.90;;;21.43;;
2748;SDS011;1382;52.142;11.618;2024-02-28T09:27:38;30.30;;;19.60;;
2748;SDS011;1382;52.142;11.618;2024-02-28T09:30:05;29.73;;;19.73;;
2748;SDS011;1382;52.142;11.618;2024-02-28T09:32:33;30.53;;;21.03;;
2748;SDS011;1382;52.142;11.618;2024-02-28T09:35:00;29.83;;;19.80;;
2748;SDS011;1382;52.142;11.618;2024-02-28T09:37:28;30.00;;;21.50;;
2748;SDS011;1382;52.142;11.618;2024-02-28T09:39:55;27.97;;;18.80;;
2748;SDS011;1382;52.142;11.618;2024-02-28T09:42:22;38.33;;;20.27;;
2748;SDS011;1382;52.142;11.618;2024-02-28T09:44:50;25.57;;;18.57;;
2748;SDS011;1382;52.142;11.618;2024-02-28T09:47:17;27.30;;;21.03;;
2748;SDS011;1382;52.142;11.618;2024-02-28T09:49:44;27.70;;;23.23;;
2748;SDS011;1382;52.142;11.618;2024-02-28T09:52:15;26.90;;;19.50;;
2748;SDS011;1382;52.142;11.618;2024-02-28T09:54:42;28.10;;;21.77;;
2748;SDS011;1382;52.142;11.618;2024-02-28T09:57:09;27.93;;;20.37;;
2748;SDS011;1382;52.142;11.618;2024-02-28T09:59:37;25.97;;;21.90;;
2748;SDS011;1382;52.142;11.618;2024-02-28T10:02:21;30.00;;;22.93;;
2748;SDS011;1382;52.142;11.618;2024-02-28T10:04:49;27.37;;;20.10;;
2748;SDS011;1382;52.142;11.618;2024-02-28T10:07:17;28.80;;;19.47;;
2748;SDS011;1382;52.142;11.618;2024-02-28T10:09:44;28.73;;;20.60;;
2748;SDS011;1382;52.142;11.618;2024-02-28T10:12:10;31.23;;;22.43;;
2748;SDS011;1382;52.142;11.618;2024-02-28T10:14:37;30.30;;;23.77;;
2748;SDS011;1382;52.142;11.618;2024-02-28T10:17:04;29.10;;;20.90;;
2748;SDS011;1382;52.142;11.618;2024-02-28T10:19:33;26.67;;;18.60;;
2748;SDS011;1382;52.142;11.618;2024-02-28T10:22:00;27.37;;;22.40;;
2748;SDS011;1382;52.142;11.618;2024-02-28T10:24:27;29.40;;;22.10;;
2748;SDS011;1382;52.142;11.618;2024-02-28T10:26:54;27.77;;;19.13;;
2748;SDS011;1382;52.142;11.618;2024-02-28T10:29:22;26.13;;;17.77;;
2748;SDS011;1382;52.142;11.618;2024-02-28T10:31:50;28.27;;;19.97;;
2748;SDS011;1382;52.142;11.618;2024-02-28T10:34:17;31.43;;;20.33;;
2748;SDS011;1382;52.142;11.618;2024-02-28T10:36:45;30.40;;;19.40;;
2748;SDS011;1382;52.142;11.618;2024-02-28T10:39:13;27.07;;;19.07;;
2748;SDS011;1382;52.142;11.618;2024-02-28T10:41:41;28.83;;;19.23;;
2748;SDS011;1382;52.142;11.618;2024-02-28T10:44:08;26.53;;;19.73;;
2748;SDS011;1382;52.142;11.618;2024-02-28T10:46:35;32.43;;;23.17;;
2748;SDS011;1382;52.142;11.618;2024-02-28T10:49:05;28.20;;;19.60;;
2748;SDS011;1382;52.142;11.618;2024-02-28T10:51:33;30.20;;;21.70;;
2748;SDS011;1382;52.142;11.618;2024-02-28T10:54:12;32.40;;;21.43;;
2748;SDS011;1382;52.142;11.618;2024-02-28T10:56:42;30.47;;;21.13;;
2748;SDS011;1382;52.142;11.618;2024-02-28T10:59:10;32.00;;;23.47;;
2748;SDS011;1382;52.142;11.618;2024-02-28T11:01:42;32.73;;;21.67;;
2748;SDS011;1382;52.142;11.618;2024-02-28T11:04:10;30.87;;;23.27;;
2748;SDS011;1382;52.142;11.618;2024-02-28T11:06:47;30.80;;;21.10;;
2748;SDS011;1382;52.142;11.618;2024-02-28T11:09:20;29.60;;;18.90;;
2748;SDS011;1382;52.142;11.618;2024-02-28T11:11:47;30.77;;;20.47;;
2748;SDS011;1382;52.142;11.618;2024-02-28T11:14:15;31.83;;;22.37;;
2748;SDS011;1382;52.142;11.618;2024-02-28T11:16:42;29.87;;;21.30;;
2748;SDS011;1382;52.142;11.618;2024-02-28T11:19:10;30.50;;;19.67;;
2748;SDS011;1382;52.142;11.618;2024-02-28T11:21:45;32.27;;;21.47;;
2748;SDS011;1382;52.142;11.618;2024-02-28T11:24:22;32.63;;;21.73;;
2748;SDS011;1382;52.142;11.618;2024-02-28T11:26:49;31.33;;;22.10;;
2748;SDS011;1382;52.142;11.618;2024-02-28T11:29:16;34.40;;;24.20;;
2748;SDS011;1382;52.142;11.618;2024-02-28T11:31:47;36.57;;;25.43;;
2748;SDS011;1382;52.142;11.618;2024-02-28T11:34:14;31.13;;;21.50;;
2748;SDS011;1382;52.142;11.618;2024-02-28T11:36:41;33.90;;;21.40;;
2748;SDS011;1382;52.142;11.618;2024-02-28T11:39:08;29.53;;;21.17;;
2748;SDS011;1382;52.142;11.618;2024-02-28T11:41:36;31.07;;;21.37;;
2748;SDS011;1382;52.142;11.618;2024-02-28T11:44:03;34.47;;;22.00;;
2748;SDS011;1382;52.142;11.618;2024-02-28T11:46:30;31.60;;;23.33;;
2748;SDS011;1382;52.142;11.618;2024-02-28T11:48:58;35.30;;;22.10;;
2748;SDS011;1382;52.142;11.618;2024-02-28T11:51:27;38.83;;;26.40;;
2748;SDS011;1382;52.142;11.618;2024-02-28T11:53:54;32.30;;;21.47;;
2748;SDS011;1382;52.142;11.618;2024-02-28T11:56:21;33.67;;;25.30;;
2748;SDS011;1382;52.142;11.618;2024-02-28T11:58:53;35.50;;;26.37;;
2748;SDS011;1382;52.142;11.618;2024-02-28T12:01:31;29.00;;;19.30;;
2748;SDS011;1382;52.142;11.618;2024-02-28T12:04:02;26.60;;;18.73;;
2748;SDS011;1382;52.142;11.618;2024-02-28T12:06:29;29.13;;;20.00;;
2748;SDS011;1382;52.142;11.618;2024-02-28T12:08:56;28.73;;;20.87;;
2748;SDS011;1382;52.142;11.618;2024-02-28T12:11:24;27.40;;;20.87;;
2748;SDS011;1382;52.142;11.618;2024-02-28T12:13:54;27.83;;;20.33;;
2748;SDS011;1382;52.142;11.618;2024-02-28T12:16:24;26.63;;;19.73;;
2748;SDS011;1382;52.142;11.618;2024-02-28T12:18:52;24.50;;;15.87;;
2748;SDS011;1382;52.142;11.618;2024-02-28T12:21:19;30.93;;;21.13;;
2748;SDS011;1382;52.142;11.618;2024-02-28T12:23:46;26.33;;;19.43;;
2748;SDS011;1382;52.142;11.618;2024-02-28T12:26:13;31.93;;;21.37;;
2748;SDS011;1382;52.142;11.618;2024-02-28T12:28:43;33.97;;;21.63;;
2748;SDS011;1382;52.142;11.618;2024-02-28T12:31:15;30.47;;;20.93;;
2748;SDS011;1382;52.142;11.618;2024-02-28T12:33:42;31.30;;;23.73;;
2748;SDS011;1382;52.142;11.618;2024-02-28T12:36:09;28.93;;;19.97;;
2748;SDS011;1382;52.142;11.618;2024-02-28T12:38:36;28.57;;;19.83;;
2748;SDS011;1382;52.142;11.618;2024-02-28T12:41:03;26.37;;;20.70;;
2748;SDS011;1382;52.142;11.618;2024-02-28T12:43:30;31.47;;;22.97;;
2748;SDS011;1382;52.142;11.618;2024-02-28T12:45:57;27.63;;;17.83;;
2748;SDS011;1382;52.142;11.618;2024-02-28T12:48:30;27.73;;;20.20;;
2748;SDS011;1382;52.142;11.618;2024-02-28T12:50:59;25.00;;;17.90;;
2748;SDS011;1382;52.142;11.618;2024-02-28T12:53:26;29.33;;;21.07;;
2748;SDS011;1382;52.142;11.618;2024-02-28T12:55:53;27.13;;;18.20;;
2748;SDS011;1382;52.142;11.618;2024-02-28T12:58:20;27.00;;;18.97;;
2748;SDS011;1382;52.142;11.618;2024-02-28T13:00:47;27.87;;;19.70;;
2748;SDS011;1382;52.142;11.618;2024-02-28T13:03:19;28.17;;;21.10;;
2748;SDS011;1382;52.142;11.618;2024-02-28T13:05:50;33.07;;;27.03;;
2748;SDS011;1382;52.142;11.618;2024-02-28T13:08:17;30.77;;;21.80;;
2748;SDS011;1382;52.142;11.618;2024-02-28T13:10:44;29.10;;;20.17;;
2748;SDS011;1382;52.142;11.618;2024-02-28T13:13:11;24.03;;;19.17;;
2748;SDS011;1382;52.142;11.618;2024-02-28T13:15:39;32.23;;;20.63;;
2748;SDS011;1382;52.142;11.618;2024-02-28T13:18:07;33.60;;;23.50;;
2748;SDS011;1382;52.142;11.618;2024-02-28T13:20:34;31.60;;;21.30;;
2748;SDS011;1382;52.142;11.618;2024-02-28T13:23:02;33.37;;;25.53;;
2748;SDS011;1382;52.142;11.618;2024-02-28T13:25:32;28.30;;;19.60;;
2748;SDS011;1382;52.142;11.618;2024-02-28T13:27:59;29.10;;;20.87;;
2748;SDS011;1382;52.142;11.618;2024-02-28T13:30:26;30.50;;;21.77;;
2748;SDS011;1382;52.142;11.618;2024-02-28T13:32:54;30.60;;;20.13;;
2748;SDS011;1382;52.142;11.618;2024-02-28T13:35:23;28.83;;;20.37;;
2748;SDS011;1382;52.142;11.618;2024-02-28T13:37:58;27.10;;;19.80;;
2748;SDS011;1382;52.142;11.618;2024-02-28T13:40:39;32.40;;;21.57;;
2748;SDS011;1382;52.142;11.618;2024-02-28T13:43:10;33.67;;;22.37;;
2748;SDS011;1382;52.142;11.618;2024-02-28T13:45:39;30.57;;;22.20;;
2748;SDS011;1382;52.142;11.618;2024-02-28T13:48:22;36.03;;;19.37;;
2748;SDS011;1382;52.142;11.618;2024-02-28T13:50:58;26.97;;;19.07;;
2748;SDS011;1382;52.142;11.618;2024-02-28T13:56:29;28.90;;;20.17;;
2748;SDS011;1382;52.142;11.618;2024-02-28T13:59:14;28.67;;;22.43;;
2748;SDS011;1382;52.142;11.618;2024-02-28T14:01:42;31.47;;;21.10;;
2748;SDS011;1382;52.142;11.618;2024-02-28T14:04:20;31.63;;;20.87;;
2748;SDS011;1382;52.142;11.618;2024-02-28T14:06:47;31.63;;;22.07;;
2748;SDS011;1382;52.142;11.618;2024-02-28T14:09:26;31.03;;;19.37;;
2748;SDS011;1382;52.142;11.618;2024-02-28T14:11:58;30.30;;;19.97;;
2748;SDS011;1382;52.142;11.618;2024-02-28T14:14:46;28.87;;;22.03;;
2748;SDS011;1382;52.142;11.618;2024-02-28T14:17:19;29.50;;;20.50;;
2748;SDS011;1382;52.142;11.618;2024-02-28T14:19:47;32.37;;;21.60;;
2748;SDS011;1382;52.142;11.618;2024-02-28T14:22:27;33.10;;;21.87;;
2748;SDS011;1382;52.142;11.618;2024-02-28T14:25:20;31.53;;;21.83;;
2748;SDS011;1382;52.142;11.618;2024-02-28T14:28:09;33.20;;;20.43;;
2748;SDS011;1382;52.142;11.618;2024-02-28T14:31:03;29.67;;;19.87;;
2748;SDS011;1382;52.142;11.618;2024-02-28T14:33:46;29.20;;;19.10;;
2748;SDS011;1382;52.142;11.618;2024-02-28T14:36:14;36.93;;;22.97;;
2748;SDS011;1382;52.142;11.618;2024-02-28T14:38:49;28.50;;;20.33;;
2748;SDS011;1382;52.142;11.618;2024-02-28T14:41:39;32.47;;;21.37;;
2748;SDS011;1382;52.142;11.618;2024-02-28T14:47:39;29.37;;;20.30;;
2748;SDS011;1382;52.142;11.618;2024-02-28T14:57:24;27.43;;;21.93;;
2748;SDS011;1382;52.142;11.618;2024-02-28T15:00:24;25.77;;;17.70;;
2748;SDS011;1382;52.142;11.618;2024-02-28T15:03:21;27.53;;;17.80;;
2748;SDS011;1382;52.142;11.618;2024-02-28T15:06:15;30.40;;;18.90;;